Latest Weather Observations for Maroochydore

IDQ60901

Issued at 1:31 pm EST Tuesday 30 May 2017 (issued every 10 minutes, with the page automatically refreshed every 10 minutes)

About weather observations | Map of Brisbane area stations | Latest observations for Brisbane area | Other Formats
Station Details ID: 040861 Name: SUNSHINE COAST AIRPORT Lat: -26.60 Lon: 153.09 Height: 3.3 m
Data from the previous 72 hours. | See also: Recent months at Maroochydore
Date/Time
EST
Temp
°C
App
Temp
°C
Dew
Point
°C
Rel
Hum
%
Delta-T
°C
Wind Press
QNH
hPa
Press
MSL
hPa
Rain since
9am
mm
Dir  Spd
km/h
Gust
km/h
Spd
kts
Gust
kts
30/01:00pm 23.2 20.3 10.9 46 6.8 ESE 17 20 9 11 1020.1 - 0.0
30/12:30pm 23.7 21.0 7.3 35 8.6 SSE 11 17 6 9 1020.3 - 0.0
30/12:00pm 22.8 20.4 7.0 36 8.1 S 9 13 5 7 1020.8 1020.8 0.0
30/11:30am 22.5 19.7 8.6 41 7.4 SSW 13 19 7 10 1021.4 - 0.0
30/11:00am 21.3 18.7 9.2 46 6.4 SW 13 19 7 10 1021.7 - 0.0
30/10:30am 19.6 17.4 9.5 52 5.4 SW 11 15 6 8 1022.0 - 0.0
30/10:00am 18.4 16.6 8.1 51 5.3 SW 7 9 4 5 1022.3 - 0.0
30/09:30am 17.5 15.7 8.1 54 4.8 WSW 7 11 4 6 1022.6 - 0.0
30/09:00am 17.3 15.2 8.4 56 4.5 WSW 9 11 5 6 1022.9 1022.9 0.0
30/08:30am 15.4 13.0 8.6 64 3.5 WSW 11 11 6 6 1022.0 - 0.0
30/08:00am 15.1 12.5 7.9 62 3.6 WSW 11 15 6 8 1022.1 - 0.0
30/07:30am 14.8 12.5 7.6 62 3.6 WSW 9 15 5 8 1022.1 - 0.0
30/07:00am 15.0 12.7 7.3 60 3.8 SW 9 13 5 7 1021.6 - 0.0
30/06:30am 15.0 12.6 6.8 58 4.0 WSW 9 13 5 7 1021.9 - 0.0
30/06:00am 15.1 12.7 6.9 58 4.0 SW 9 13 5 7 1021.3 1021.3 0.0
30/05:30am 15.0 12.2 7.1 59 3.9 W 11 13 6 7 1021.1 - 0.0
30/05:00am 15.2 12.1 7.2 59 3.9 SW 13 17 7 9 1020.4 - 0.0
30/04:30am 15.6 12.8 7.1 57 4.2 SW 11 15 6 8 1020.6 - 0.0
30/04:00am 15.4 12.0 7.7 60 3.8 WSW 15 19 8 10 1021.0 - 0.0
30/03:30am 14.8 13.4 9.6 71 2.7 SW 7 9 4 5 1020.7 - 0.0
30/03:00am 15.5 14.0 9.0 65 3.3 S 7 9 4 5 1020.7 1020.7 0.0
30/02:30am 15.4 12.8 9.3 67 3.1 SSW 13 17 7 9 1020.3 - 0.0
30/02:00am 15.3 12.9 9.9 70 2.8 SW 13 17 7 9 1020.5 - 0.0
30/01:30am 14.5 13.5 10.9 79 1.9 SW 7 11 4 6 1020.9 - 0.0
30/01:00am 14.3 13.3 11.1 81 1.7 SW 7 9 4 5 1020.6 - 0.0
30/12:30am 14.3 13.0 12.5 89 1.0 WSW 11 13 6 7 1020.6 - 0.0
30/12:00am 13.8 13.0 12.9 94 0.5 WSW 9 11 5 6 1020.3 1020.3 0.0
 
Date/Time
EST
Temp
°C
App
Temp
°C
Dew
Point
°C
Rel
Hum
%
Delta-T
°C
Wind Press
QNH
hPa
Press
MSL
hPa
Rain since
9am
mm
Dir  Spd
km/h
Gust
km/h
Spd
kts
Gust
kts
29/11:30pm 14.4 13.8 13.6 95 0.4 SW 9 11 5 6 1020.5 - 0.0
29/11:00pm 14.6 14.6 13.6 94 0.6 W 6 9 3 5 1020.2 - 0.0
29/10:30pm 15.2 15.2 14.2 94 0.6 WSW 7 9 4 5 1020.5 - 0.0
29/10:00pm 15.5 15.0 14.9 96 0.3 WSW 11 13 6 7 1020.5 - 0.0
29/09:30pm 15.4 15.6 14.8 96 0.3 SW 7 9 4 5 1020.2 - 0.0
29/09:00pm 15.3 15.1 14.7 96 0.3 WSW 9 11 5 6 1020.0 1020.0 0.0
29/08:30pm 14.8 14.7 13.8 94 0.6 W 7 9 4 5 1020.0 - 0.0
29/08:00pm 16.1 16.6 15.0 93 0.6 SW 6 7 3 4 1019.8 - 0.0
29/07:30pm 16.2 16.7 14.9 92 0.7 W 6 7 3 4 1019.5 - 0.0
29/07:00pm 16.8 17.2 15.2 90 0.9 WSW 7 9 4 5 1019.1 - 0.0
29/06:30pm 17.0 17.4 14.8 87 1.3 WSW 6 7 3 4 1019.0 - 0.0
29/06:00pm 17.8 18.3 15.1 84 1.6 NW 6 7 3 4 1018.7 1018.7 0.0
29/05:30pm 18.8 19.4 15.3 80 2.1 N 6 7 3 4 1018.1 - 0.0
29/05:00pm 20.7 21.1 15.3 71 3.2 NNE 7 9 4 5 1017.6 - 0.0
29/04:30pm 22.5 22.6 15.6 65 4.1 ENE 9 11 5 6 1017.4 - 0.0
29/04:00pm 23.3 22.6 14.3 57 5.3 ENE 11 13 6 7 1017.2 - 0.0
29/03:30pm 23.9 23.7 15.7 60 5.0 ENE 11 13 6 7 1017.2 - 0.0
29/03:00pm 24.3 23.5 15.0 56 5.6 NE 13 17 7 9 1017.3 1017.3 0.0
29/02:30pm 24.2 22.9 14.9 56 5.5 NE 15 19 8 10 1017.2 - 0.0
29/02:00pm 24.6 24.1 15.8 58 5.3 ENE 13 17 7 9 1017.3 - 0.0
29/01:30pm 24.4 23.3 15.3 57 5.5 ENE 15 19 8 10 1017.1 - 0.0
29/01:00pm 25.0 23.3 14.8 53 6.1 ENE 17 19 9 10 1017.2 - 0.0
29/12:30pm 25.2 24.3 15.8 56 5.7 ENE 15 20 8 11 1017.5 - 0.0
29/12:00pm 25.5 25.0 14.9 52 6.3 NE 11 17 6 9 1017.7 1017.7 0.0
29/11:30am 25.3 25.5 14.7 51 6.3 N 7 13 4 7 1018.0 - 0.0
29/11:00am 24.7 25.0 15.1 55 5.8 W 7 13 4 7 1018.2 - 0.0
29/10:30am 24.4 24.0 15.3 57 5.5 NNW 11 17 6 9 1018.6 - 0.0
29/10:00am 23.6 23.1 15.9 62 4.7 WNW 13 17 7 9 1018.9 - 0.0
29/09:30am 23.0 22.8 15.8 64 4.3 NW 11 17 6 9 1019.1 - 0.0
29/09:00am 21.9 21.4 16.8 73 3.1 WNW 15 19 8 10 1019.0 1019.0 0.2
29/08:30am 20.3 21.2 16.7 80 2.2 WNW 7 11 4 6 1019.0 - 0.2
29/08:00am 18.7 19.6 16.5 87 1.3 WSW 7 11 4 6 1019.0 - 0.2
29/07:30am 17.4 18.2 16.4 94 0.6 WSW 7 9 4 5 1018.8 - 0.2
29/07:00am 15.9 17.3 15.4 97 0.3 NW 2 9 1 5 1018.5 - 0.2
29/06:30am 15.7 16.0 15.1 96 0.3 NNW 7 9 4 5 1018.2 - 0.2
29/06:00am 16.2 16.6 15.4 95 0.5 NNW 7 9 4 5 1018.0 1018.0 0.2
29/05:30am 16.5 16.8 15.9 96 0.4 NW 9 11 5 6 1018.0 - 0.2
29/05:00am 16.7 17.1 16.2 97 0.3 NW 9 9 5 5 1017.9 - 0.2
29/04:30am 16.3 16.5 15.7 96 0.4 WNW 9 9 5 5 1017.9 - 0.2
29/04:00am 16.3 16.5 15.7 96 0.4 WSW 9 11 5 6 1017.8 - 0.2
29/03:30am 16.5 16.8 15.9 96 0.4 W 9 11 5 6 1017.9 - 0.2
29/03:00am 16.4 18.2 15.6 95 0.5 CALM 0 0 0 0 1017.8 1017.8 0.2
29/02:30am 16.5 18.4 15.7 95 0.5 CALM 0 0 0 0 1017.7 - 0.2
29/02:00am 16.6 18.5 15.8 95 0.5 CALM 0 0 0 0 1017.7 - 0.2
29/01:30am 16.3 18.1 15.5 95 0.5 CALM 0 0 0 0 1017.9 - 0.2
29/01:00am 16.3 16.9 15.7 96 0.4 WNW 7 7 4 4 1018.0 - 0.2
29/12:30am 15.6 15.4 14.6 94 0.6 W 9 11 5 6 1018.0 - 0.2
29/12:00am 16.8 17.3 15.5 92 0.8 N 7 7 4 4 1017.9 1017.9 0.2
 
Date/Time
EST
Temp
°C
App
Temp
°C
Dew
Point
°C
Rel
Hum
%
Delta-T
°C
Wind Press
QNH
hPa
Press
MSL
hPa
Rain since
9am
mm
Dir  Spd
km/h
Gust
km/h
Spd
kts
Gust
kts
28/11:30pm 17.0 16.9 15.9 93 0.6 NW 11 13 6 7 1018.1 - 0.2
28/11:00pm 17.1 17.4 16.0 93 0.6 NW 9 11 5 6 1018.3 - 0.2
28/10:30pm 17.3 16.9 16.2 93 0.7 NW 13 17 7 9 1018.2 - 0.2
28/10:00pm 17.1 16.9 15.8 92 0.8 NW 11 13 6 7 1018.3 - 0.2
28/09:30pm 17.5 17.7 15.8 90 1.0 WNW 9 13 5 7 1018.4 - 0.2
28/09:00pm 17.9 18.3 16.2 90 1.0 WNW 9 11 5 6 1018.5 1018.5 0.2
28/08:30pm 17.9 18.5 15.7 87 1.3 NW 7 11 4 6 1018.5 - 0.2
28/08:00pm 17.9 18.5 15.7 87 1.3 NW 7 9 4 5 1018.4 - 0.2
28/07:30pm 18.5 18.3 15.6 83 1.7 NW 11 15 6 8 1018.1 - 0.2
28/07:00pm 19.1 18.7 16.3 84 1.7 N 13 17 7 9 1017.6 - 0.2
28/06:30pm 19.2 19.1 16.1 82 1.8 N 11 13 6 7 1017.4 - 0.2
28/06:00pm 19.9 19.1 16.2 79 2.2 N 15 17 8 9 1016.8 1016.8 0.2
28/05:30pm 20.4 19.1 15.8 75 2.7 N 17 22 9 12 1016.4 - 0.2
28/05:00pm 20.4 19.6 16.0 76 2.6 N 15 22 8 12 1016.2 - 0.2
28/04:30pm 21.5 20.3 16.2 72 3.2 N 17 24 9 13 1016.0 - 0.2
28/04:00pm 22.5 20.7 16.1 67 3.9 NNE 20 26 11 14 1015.9 - 0.2
28/03:30pm 23.1 21.2 16.6 67 4.0 NNE 22 28 12 15 1015.8 - 0.2
28/03:00pm 23.7 22.0 16.2 63 4.6 NNE 20 26 11 14 1015.9 1015.9 0.2
28/02:30pm 23.9 22.0 15.7 60 5.0 NNE 20 26 11 14 1016.0 - 0.2
28/02:00pm 24.1 22.0 15.1 57 5.4 NNE 20 26 11 14 1016.2 - 0.2
28/01:30pm 24.8 23.1 15.7 57 5.5 NNE 19 24 10 13 1016.5 - 0.2
28/01:00pm 23.9 22.0 15.1 58 5.3 NE 19 22 10 12 1016.7 - 0.2
28/12:30pm 24.4 22.3 15.1 56 5.6 NNE 20 24 11 13 1017.0 - 0.2
28/12:00pm 23.0 20.7 14.6 59 5.0 NNE 20 24 11 13 1017.4 1017.4 0.2
28/11:30am 24.7 24.7 18.2 67 4.1 NE 15 20 8 11 1017.7 - 0.2
28/11:00am 22.8 22.6 16.8 69 3.7 ENE 13 17 7 9 1018.1 - 0.2
28/10:30am 22.5 23.0 17.4 73 3.1 ENE 11 15 6 8 1018.6 - 0.2
28/10:00am 22.4 23.2 17.3 73 3.1 NE 9 13 5 7 1018.8 - 0.0
28/09:30am 21.6 22.7 17.0 75 2.8 WNW 7 9 4 5 1019.1 - 0.0
28/09:00am 19.6 22.2 17.4 87 1.3 CALM 0 0 0 0 1019.1 1019.1 0.0
28/08:30am 17.5 18.5 16.4 93 0.7 WNW 6 7 3 4 1019.2 - 0.0
28/08:00am 16.2 16.8 15.7 97 0.3 W 7 9 4 5 1019.1 - 0.0
28/07:30am 14.7 15.0 14.5 99 0.1 W 6 9 3 5 1019.1 - 0.0
28/07:06am 13.5 14.2 13.3 99 0.1 NW 2 11 1 6 1018.9 - 0.0
28/07:00am 13.4 12.7 13.1 98 0.2 WNW 9 11 5 6 1018.8 - 0.0
28/06:30am 12.0 11.1 11.2 95 0.4 W 7 9 4 5 1018.8 - 0.0
28/06:26am 12.0 11.1 11.2 95 0.4 W 7 7 4 4 1018.8 - 0.0
28/06:17am 12.2 11.3 11.3 94 0.5 WSW 7 9 4 5 1018.7 - 0.0
28/06:00am 12.4 11.2 11.5 94 0.5 WSW 9 11 5 6 1018.7 1018.7 0.0
28/05:45am 12.3 11.1 11.5 95 0.4 W 9 11 5 6 1018.5 - 0.0
28/05:31am 12.6 11.1 11.8 95 0.4 W 11 13 6 7 1018.4 - 0.0
28/05:30am 12.6 11.2 12.1 97 0.3 W 11 13 6 7 1018.4 - 0.0
28/05:01am 12.4 11.6 11.6 95 0.4 WNW 7 11 4 6 1018.3 - 0.0
28/05:00am 12.4 11.6 11.8 96 0.3 WNW 7 9 4 5 1018.3 - 0.0
28/04:56am 12.2 11.5 11.4 95 0.4 W 6 9 3 5 1018.3 - 0.0
28/04:30am 12.0 11.2 11.2 95 0.4 W 6 9 3 5 1018.2 - 0.0
28/04:00am 12.4 11.6 11.8 96 0.3 W 7 7 4 4 1018.2 - 0.0
28/03:30am 12.9 12.3 12.4 97 0.3 W 7 9 4 5 1018.2 - 0.0
28/03:05am 12.7 12.0 11.9 95 0.4 W 7 9 4 5 1018.5 - 0.0
28/03:00am 12.7 11.6 11.9 95 0.4 W 9 11 5 6 1018.5 1018.5 0.0
28/02:49am 12.7 11.6 11.9 95 0.4 W 9 11 5 6 1018.5 - 0.0
28/02:30am 12.9 12.4 12.7 99 0.1 W 7 9 4 5 1018.7 - 0.0
28/02:00am 13.3 13.1 13.0 98 0.2 WSW 6 7 3 4 1019.0 - 0.0
28/01:57am 13.4 13.2 13.1 98 0.2 WSW 6 7 3 4 1019.0 - 0.0
28/01:32am 13.3 12.5 13.0 98 0.2 WSW 9 9 5 5 1019.2 - 0.0
28/01:30am 13.3 12.5 12.8 97 0.3 WSW 9 9 5 5 1019.2 - 0.0
28/01:00am 13.3 13.1 13.0 98 0.2 W 6 7 3 4 1019.3 - 0.0
28/12:30am 13.3 12.8 12.8 97 0.3 W 7 9 4 5 1019.4 - 0.0
28/12:07am 13.5 13.1 13.0 97 0.3 W 7 7 4 4 1019.5 - 0.0
28/12:05am 13.5 13.1 13.0 97 0.3 W 7 7 4 4 1019.5 - 0.0
28/12:00am 13.2 12.9 12.7 97 0.3 W 6 9 3 5 1019.5 1019.5 0.0
 
Date/Time
EST
Temp
°C
App
Temp
°C
Dew
Point
°C
Rel
Hum
%
Delta-T
°C
Wind Press
QNH
hPa
Press
MSL
hPa
Rain since
9am
mm
Dir  Spd
km/h
Gust
km/h
Spd
kts
Gust
kts
27/11:39pm 13.7 13.4 13.2 97 0.3 W 7 9 4 5 1019.7 - 0.0
27/11:30pm 13.8 13.5 13.3 97 0.3 W 7 9 4 5 1019.7 - 0.0
27/11:29pm 13.8 13.5 13.3 97 0.3 W 7 9 4 5 1019.8 - 0.0
27/11:00pm 14.0 13.8 13.5 97 0.3 W 7 9 4 5 1020.1 - 0.0
27/10:51pm 14.3 14.4 13.8 97 0.3 W 6 9 3 5 1020.1 - 0.0
27/10:32pm 14.4 14.3 13.9 97 0.3 WSW 7 11 4 6 1020.2 - 0.0
27/10:30pm 14.4 14.3 13.9 97 0.3 W 7 11 4 6 1020.2 - 0.0
27/10:09pm 14.3 14.4 13.8 97 0.3 W 6 7 3 4 1020.3 - 0.0
27/10:01pm 14.6 14.6 14.1 97 0.3 WSW 7 9 4 5 1020.3 - 0.0
27/10:00pm 14.6 14.6 14.1 97 0.3 WSW 7 9 4 5 1020.3 - 0.0
27/09:30pm 14.4 14.2 13.6 95 0.4 W 7 9 4 5 1020.3 - 0.0
27/09:13pm 14.8 14.9 14.0 95 0.4 W 6 7 3 4 1020.4 - 0.0
27/09:00pm 14.9 14.9 14.3 96 0.3 W 7 7 4 4 1020.5 1020.5 0.0
27/08:53pm 14.9 14.9 14.1 95 0.5 W 7 7 4 4 1020.5 - 0.0
27/08:38pm 15.2 15.9 14.4 95 0.5 W 4 6 2 3 1020.5 - 0.0
27/08:30pm 15.2 15.5 14.4 95 0.5 W 6 7 3 4 1020.5 - 0.0
27/08:00pm 15.1 15.1 14.3 95 0.5 W 7 7 4 4 1020.4 - 0.0
27/07:30pm 15.0 15.1 13.9 93 0.6 SW 6 6 3 3 1020.3 - 0.0
27/07:00pm 16.1 16.4 15.0 93 0.6 WSW 7 9 4 5 1020.1 - 0.0
27/06:30pm 15.5 16.6 13.5 88 1.1 CALM 0 0 0 0 1019.9 - 0.0
27/06:00pm 16.8 18.1 14.1 84 1.5 CALM 0 0 0 0 1019.4 1019.4 0.0
27/05:30pm 18.0 18.2 14.1 78 2.2 E 6 7 3 4 1019.1 - 0.0
27/05:00pm 20.0 20.4 15.2 74 2.8 E 7 9 4 5 1018.9 - 0.0
27/04:30pm 21.1 21.6 15.0 68 3.6 E 6 9 3 5 1018.7 - 0.0
27/04:00pm 21.5 21.1 15.1 67 3.8 E 11 13 6 7 1018.7 - 0.0
27/03:30pm 22.2 21.7 15.8 67 3.8 ENE 13 17 7 9 1018.6 - 0.0
27/03:00pm 22.2 21.5 15.3 65 4.1 E 13 20 7 11 1018.5 1018.5 0.0
27/02:30pm 22.2 21.5 15.5 66 4.0 E 13 17 7 9 1018.6 - 0.0
27/02:00pm 22.3 21.5 16.1 68 3.7 E 15 20 8 11 1018.6 - 0.0

Latest Capital City Observations: Canberra | Sydney | Melbourne | Brisbane | Adelaide | Perth | Hobart | Darwin

Other Formats:

Comma delimited format used in spreadsheet applications
http://www.bom.gov.au/fwo/IDQ60901/IDQ60901.94569.axf

JavaScript Object Notation format (JSON) in row-major order
http://www.bom.gov.au/fwo/IDQ60901/IDQ60901.94569.json